Time;durP1;ratioP1;P1;durP2;ratioP2;P2;SDS_P1;SDS_P2;PMS_P1;PMS_P2;Temp;Humidity;BMP_temperature;BMP_pressure;BME280_temperature;BME280_humidity;BME280_pressure;Samples;Min_cycle;Max_cycle;Signal;HPM_P1;HPM_P2
2022/07/26 00:01:21;;;;;;;10.52;8.65;;;;;;;18.69;94.94;92990.94;5050987;28;20048;-83
2022/07/26 00:03:48;;;;;;;9.98;8.45;;;;;;;18.67;94.83;92987.81;5064377;28;20044;-84
2022/07/26 00:06:15;;;;;;;10.63;8.50;;;;;;;18.63;95.43;92994.59;5071020;28;20450;-85
2022/07/26 00:08:42;;;;;;;13.07;8.65;;;;;;;18.48;95.76;92985.03;5071254;28;20462;-85
2022/07/26 00:11:09;;;;;;;10.82;8.95;;;;;;;18.55;95.69;92994.09;5071134;28;20045;-84
2022/07/26 00:13:37;;;;;;;12.73;9.35;;;;;;;18.50;95.79;92995.94;5071192;28;20291;-81
2022/07/26 00:16:05;;;;;;;11.30;8.85;;;;;;;18.34;95.48;92969.19;5069896;28;20493;-82
2022/07/26 00:18:32;;;;;;;10.98;8.55;;;;;;;17.87;95.88;92910.25;5071010;28;20098;-83
2022/07/26 00:20:59;;;;;;;11.48;8.10;;;;;;;18.05;96.32;92946.34;5070973;28;20052;-83
2022/07/26 00:23:26;;;;;;;11.65;8.82;;;;;;;18.27;96.27;92982.47;5071051;28;20048;-84
2022/07/26 00:25:52;;;;;;;10.80;8.65;;;;;;;18.33;95.73;92988.44;5070333;28;20087;-83
2022/07/26 00:28:19;;;;;;;10.80;8.95;;;;;;;18.23;96.58;92973.66;5070764;28;20036;-84
2022/07/26 00:30:47;;;;;;;10.85;8.43;;;;;;;18.19;96.77;92973.38;5070763;28;20492;-85
2022/07/26 00:33:14;;;;;;;12.45;8.68;;;;;;;18.32;97.29;92987.66;5070504;28;20044;-85
2022/07/26 00:35:41;;;;;;;11.30;8.85;;;;;;;18.13;97.67;92958.81;5070538;28;20094;-84
2022/07/26 00:38:08;;;;;;;11.10;9.20;;;;;;;18.15;97.37;92965.31;5070446;28;20048;-85
2022/07/26 00:40:35;;;;;;;10.90;8.63;;;;;;;17.68;97.61;92899.59;5070764;28;20048;-86
2022/07/26 00:43:01;;;;;;;11.02;8.90;;;;;;;18.14;98.02;92955.19;5070544;28;20393;-88
2022/07/26 00:45:28;;;;;;;10.35;8.77;;;;;;;18.26;97.30;92980.91;5070238;28;20118;-86
2022/07/26 00:47:58;;;;;;;11.00;9.05;;;;;;;17.56;96.30;92880.94;5070907;28;20052;-87
2022/07/26 00:50:24;;;;;;;11.68;8.82;;;;;;;17.82;96.38;92914.69;5071227;28;20052;-86
2022/07/26 00:52:51;;;;;;;11.10;8.73;;;;;;;17.49;97.27;92897.56;5053122;28;20118;-86
2022/07/26 00:55:18;;;;;;;12.60;8.85;;;;;;;18.06;97.97;92976.50;5069502;28;20048;-87
2022/07/26 00:57:46;;;;;;;12.13;9.05;;;;;;;17.52;98.23;92898.84;5070638;28;20094;-87
2022/07/26 01:00:15;;;;;;;14.43;8.63;;;;;;;17.58;97.51;92918.59;5070563;28;20121;-87
2022/07/26 01:02:42;;;;;;;10.95;8.88;;;;;;;17.92;97.80;92968.44;5070340;28;20048;-86
2022/07/26 01:05:10;;;;;;;11.15;8.57;;;;;;;17.53;98.36;92920.41;5069897;28;20571;-87
2022/07/26 01:07:38;;;;;;;11.57;8.75;;;;;;;17.77;98.30;92951.81;5070573;28;20098;-86
2022/07/26 01:10:07;;;;;;;12.68;9.75;;;;;;;17.89;98.01;92975.72;5070404;28;20180;-86
2022/07/26 01:12:34;;;;;;;11.20;9.25;;;;;;;17.27;98.15;92886.66;5070578;28;20123;-87
2022/07/26 01:15:01;;;;;;;10.65;9.43;;;;;;;17.74;97.89;92954.94;5070297;28;20448;-87
2022/07/26 01:17:28;;;;;;;10.02;7.97;;;;;;;17.46;98.43;92915.47;5070162;28;20048;-87
2022/07/26 01:19:54;;;;;;;12.40;8.50;;;;;;;17.59;98.06;92933.13;5070347;28;20549;-91
2022/07/26 01:22:23;;;;;;;10.27;8.45;;;;;;;17.82;98.15;92967.41;5069790;28;20037;-91
2022/07/26 01:24:50;;;;;;;12.82;8.63;;;;;;;17.76;98.38;92971.03;5070679;28;20056;-88
2022/07/26 01:27:17;;;;;;;11.13;8.68;;;;;;;17.75;98.71;92972.09;5070053;28;20097;-87
2022/07/26 01:29:43;;;;;;;15.02;9.40;;;;;;;17.55;98.92;92944.28;5069862;28;20106;-88
2022/07/26 01:32:10;;;;;;;10.48;8.38;;;;;;;17.30;98.75;92906.88;5069881;28;20508;-87
2022/07/26 01:34:37;;;;;;;11.52;8.32;;;;;;;17.59;98.97;92946.09;5070497;28;20109;-87
2022/07/26 01:37:05;;;;;;;11.57;8.80;;;;;;;17.68;99.03;92954.16;5070327;28;20040;-87
2022/07/26 01:39:33;;;;;;;11.63;8.52;;;;;;;17.68;98.68;92959.34;5069618;28;20063;-87
2022/07/26 01:42:00;;;;;;;11.10;8.50;;;;;;;17.49;99.37;92940.91;5069889;28;20434;-88
2022/07/26 01:44:26;;;;;;;10.48;8.10;;;;;;;16.98;99.75;92890.47;5069927;28;20459;-88
2022/07/26 01:46:53;;;;;;;10.57;8.38;;;;;;;17.55;100.00;92963.22;5069391;28;20052;-88
2022/07/26 01:49:20;;;;;;;10.57;8.40;;;;;;;16.77;99.44;92858.53;5069956;28;20128;-86
2022/07/26 01:51:47;;;;;;;10.68;8.98;;;;;;;17.41;100.00;92967.41;5069809;28;20110;-87
2022/07/26 01:54:13;;;;;;;11.20;8.68;;;;;;;17.29;100.00;92967.63;5069177;28;20049;-86
2022/07/26 01:56:42;;;;;;;11.10;9.15;;;;;;;17.29;100.00;92965.81;5056303;28;20106;-87
2022/07/26 01:59:24;;;;;;;11.40;9.30;;;;;;;16.77;100.00;92892.25;5065201;28;20040;-87
2022/07/26 02:01:50;;;;;;;11.82;9.90;;;;;;;17.16;100.00;92955.91;5069665;28;20443;-87
2022/07/26 02:06:58;;;;;;;11.90;9.10;;;;;;;17.12;100.00;92947.09;5068297;28;20052;-87
2022/07/26 02:09:25;;;;;;;12.20;8.93;;;;;;;17.28;100.00;92974.66;5069360;28;20106;-88
2022/07/26 02:11:53;;;;;;;11.65;9.05;;;;;;;16.75;100.00;92902.88;5069449;28;20393;-88
2022/07/26 02:14:20;;;;;;;12.55;9.35;;;;;;;17.17;100.00;92979.03;5069038;28;20044;-87
2022/07/26 02:16:46;;;;;;;11.43;9.70;;;;;;;16.60;100.00;92900.22;5069372;28;20097;-83
2022/07/26 02:19:13;;;;;;;12.82;9.25;;;;;;;17.21;100.00;92982.69;5069507;28;20098;-83
2022/07/26 02:21:40;;;;;;;11.55;9.25;;;;;;;17.21;100.00;92971.50;5069420;28;20056;-84
2022/07/26 02:24:08;;;;;;;11.30;9.32;;;;;;;17.04;100.00;92946.56;5069304;28;20102;-83
2022/07/26 02:26:34;;;;;;;10.98;9.40;;;;;;;17.14;100.00;92974.38;5069568;28;20053;-86
2022/07/26 02:29:02;;;;;;;12.45;9.63;;;;;;;16.58;100.00;92910.88;5069028;28;20566;-86
2022/07/26 02:31:29;;;;;;;11.43;8.88;;;;;;;17.05;100.00;92973.28;5068917;28;20102;-87
2022/07/26 02:33:56;;;;;;;10.88;9.43;;;;;;;16.51;100.00;92903.31;5069341;28;20190;-87
2022/07/26 02:36:23;;;;;;;12.00;9.38;;;;;;;17.00;100.00;92979.22;5069150;28;20442;-87
2022/07/26 02:38:49;;;;;;;11.13;9.05;;;;;;;16.98;100.00;92980.50;5069098;28;20090;-87
2022/07/26 02:41:16;;;;;;;10.95;8.65;;;;;;;16.80;100.00;92956.59;5072916;28;20044;-88
2022/07/26 02:43:43;;;;;;;12.20;8.95;;;;;;;16.85;100.00;92966.19;5073138;28;20135;-87
2022/07/26 02:46:11;;;;;;;11.88;9.60;;;;;;;16.08;100.00;92867.13;5073426;28;20056;-89
2022/07/26 02:48:38;;;;;;;13.32;9.73;;;;;;;17.00;100.00;92978.44;5073002;28;20496;-87
2022/07/26 02:51:05;;;;;;;11.77;8.98;;;;;;;17.00;100.00;92979.22;5073137;28;20547;-91
2022/07/26 02:53:31;;;;;;;11.30;8.88;;;;;;;16.98;100.00;92985.69;5072749;28;20063;-91
2022/07/26 02:55:58;;;;;;;11.93;9.05;;;;;;;16.96;100.00;92983.34;5072783;28;20541;-89
2022/07/26 02:58:26;;;;;;;12.93;9.73;;;;;;;16.96;100.00;92984.13;5073145;28;20086;-89
2022/07/26 03:00:52;;;;;;;12.00;9.23;;;;;;;16.88;100.00;92971.66;5072828;28;20573;-88
2022/07/26 03:03:21;;;;;;;12.90;9.57;;;;;;;16.98;100.00;92989.06;5073186;28;20040;-89
2022/07/26 03:05:47;;;;;;;13.32;9.20;;;;;;;17.04;100.00;92985.47;5072366;28;20048;-89
2022/07/26 03:08:14;;;;;;;11.73;8.82;;;;;;;17.00;100.00;92981.03;5072570;28;20545;-89
2022/07/26 03:10:41;;;;;;;11.75;9.35;;;;;;;17.03;100.00;92988.34;5072601;28;20044;-89
2022/07/26 03:13:08;;;;;;;11.30;9.27;;;;;;;17.05;100.00;92994.06;5072589;28;20385;-88
2022/07/26 03:15:34;;;;;;;11.45;8.82;;;;;;;17.06;100.00;92991.22;5072755;28;20125;-88
2022/07/26 03:18:01;;;;;;;13.30;9.73;;;;;;;17.04;100.00;93000.28;5072265;28;20040;-88
2022/07/26 03:20:29;;;;;;;12.02;9.82;;;;;;;17.02;100.00;92990.13;5072363;28;20110;-88
2022/07/26 03:22:56;;;;;;;12.32;10.07;;;;;;;16.38;100.00;92901.22;5072626;28;20049;-88
2022/07/26 03:25:23;;;;;;;13.68;10.48;;;;;;;17.07;100.00;93002.34;5072324;28;20095;-87
2022/07/26 03:27:50;;;;;;;12.95;9.98;;;;;;;16.97;100.00;92977.13;5072057;28;20110;-88
2022/07/26 03:30:16;;;;;;;14.65;10.05;;;;;;;17.09;100.00;93001.06;5072432;28;20059;-88
2022/07/26 03:32:43;;;;;;;15.90;10.05;;;;;;;17.04;100.00;92990.66;5072303;28;20052;-88
2022/07/26 03:35:10;;;;;;;14.18;9.52;;;;;;;16.99;100.00;92982.06;5072230;28;20036;-85
2022/07/26 03:37:38;;;;;;;13.98;9.85;;;;;;;17.01;100.00;92995.56;5072221;28;20386;-84
2022/07/26 03:40:07;;;;;;;10.70;9.13;;;;;;;16.42;100.00;92918.59;5072004;28;20037;-86
2022/07/26 03:42:34;;;;;;;12.48;9.30;;;;;;;16.51;100.00;92947.41;5072096;28;20059;-88
2022/07/26 03:45:01;;;;;;;13.57;9.43;;;;;;;16.34;100.00;92923.47;5071811;28;20045;-85
2022/07/26 03:47:28;;;;;;;14.13;9.73;;;;;;;16.80;100.00;92996.28;5071610;28;20504;-85
2022/07/26 03:49:54;;;;;;;14.02;9.70;;;;;;;16.21;100.00;92924.69;5072019;28;20094;-89
2022/07/26 03:52:21;;;;;;;13.75;10.65;;;;;;;16.79;100.00;92991.31;5070534;28;20110;-84
2022/07/26 03:54:49;;;;;;;11.50;9.65;;;;;;;16.83;100.00;92995.78;5071626;28;20587;-86
2022/07/26 03:57:15;;;;;;;15.07;10.40;;;;;;;16.46;100.00;92941.41;5071572;28;20047;-85
2022/07/26 03:59:42;;;;;;;12.35;10.00;;;;;;;16.45;100.00;92930.25;5071569;28;20044;-85
2022/07/26 04:02:09;;;;;;;12.35;10.27;;;;;;;16.67;100.00;92968.22;5072000;28;20052;-85
2022/07/26 04:04:35;;;;;;;14.57;10.20;;;;;;;15.98;100.00;92861.91;5071539;28;20052;-85
2022/07/26 04:07:02;;;;;;;12.90;9.80;;;;;;;16.83;100.00;92982.81;5071370;28;20052;-82
2022/07/26 04:09:29;;;;;;;12.52;10.10;;;;;;;16.77;100.00;92972.66;5071203;28;20044;-82
2022/07/26 04:11:57;;;;;;;12.93;10.70;;;;;;;16.85;100.00;92979.94;5071831;28;20045;-82
2022/07/26 04:14:24;;;;;;;15.13;10.18;;;;;;;16.97;100.00;92990.09;5071623;28;20090;-81
2022/07/26 04:16:50;;;;;;;14.10;10.15;;;;;;;16.90;100.00;92974.00;5071768;28;20109;-81
2022/07/26 04:19:17;;;;;;;16.80;11.23;;;;;;;17.00;100.00;92981.03;5071611;28;20451;-80
2022/07/26 04:21:44;;;;;;;13.52;10.70;;;;;;;17.06;100.00;92980.03;5071428;28;20090;-81
2022/07/26 04:24:10;;;;;;;21.85;12.32;;;;;;;17.13;100.00;92980.56;5071268;28;20053;-81
2022/07/26 04:26:37;;;;;;;16.45;11.85;;;;;;;17.11;100.00;92980.06;5071155;28;20056;-81
2022/07/26 04:29:05;;;;;;;16.55;11.55;;;;;;;17.25;100.00;92974.38;5071313;28;20052;-81
2022/07/26 04:31:32;;;;;;;17.85;12.18;;;;;;;17.33;100.00;92973.88;5071317;28;20044;-87
2022/07/26 04:33:59;;;;;;;15.60;12.35;;;;;;;17.33;100.00;92966.88;5071375;28;20044;-81
2022/07/26 04:36:26;;;;;;;13.00;10.63;;;;;;;17.47;100.00;92971.56;5071260;28;20113;-83
2022/07/26 04:38:52;;;;;;;16.48;11.13;;;;;;;17.58;100.00;92974.94;5071386;28;20056;-90
2022/07/26 04:41:19;;;;;;;14.13;10.32;;;;;;;17.55;100.00;92965.06;5071108;28;20114;-90
2022/07/26 04:43:46;;;;;;;13.45;10.90;;;;;;;17.71;100.00;92981.44;5071354;28;20389;-91
2022/07/26 04:46:14;;;;;;;14.70;10.70;;;;;;;17.59;100.00;92946.09;5069685;28;20045;-88
2022/07/26 04:48:41;;;;;;;14.02;10.85;;;;;;;17.89;100.00;92980.13;5069757;28;20056;-89
2022/07/26 04:51:07;;;;;;;14.55;11.55;;;;;;;18.01;100.00;92985.06;5070028;28;20041;-89
2022/07/26 04:53:34;;;;;;;16.25;11.65;;;;;;;18.14;100.00;92984.56;5070112;28;20107;-89
2022/07/26 04:56:01;;;;;;;12.88;11.02;;;;;;;18.29;100.00;92986.34;5068493;28;20048;-90
2022/07/26 04:58:28;;;;;;;14.52;11.45;;;;;;;18.33;100.00;92980.63;5069630;28;20056;-90
2022/07/26 05:00:54;;;;;;;17.17;11.05;;;;;;;18.37;100.00;92973.88;5069547;28;20052;-90
2022/07/26 05:03:23;;;;;;;17.27;10.65;;;;;;;18.47;99.17;92978.25;5069730;28;20449;-91
2022/07/26 05:05:50;;;;;;;16.92;11.05;;;;;;;18.62;98.53;92977.44;5067848;28;20122;-89
2022/07/26 05:08:17;;;;;;;16.25;11.57;;;;;;;18.72;98.77;92985.22;5067092;28;20082;-89
2022/07/26 05:10:44;;;;;;;17.95;12.73;;;;;;;18.68;97.61;92956.34;5069810;28;20048;-90
2022/07/26 05:13:11;;;;;;;16.33;11.98;;;;;;;18.95;95.92;92972.63;5069190;28;20040;-90
2022/07/26 05:15:37;;;;;;;16.55;12.32;;;;;;;18.93;96.80;92956.50;5069530;28;20044;-90
2022/07/26 05:18:06;;;;;;;21.30;12.80;;;;;;;18.98;99.17;92950.50;5067674;28;20121;-91
2022/07/26 05:20:35;;;;;;;17.45;13.23;;;;;;;19.18;96.29;92966.03;5069499;28;20048;-91
2022/07/26 05:23:02;;;;;;;18.75;14.15;;;;;;;19.36;97.48;92982.84;5069764;28;20086;-91
2022/07/26 05:25:28;;;;;;;18.92;13.00;;;;;;;19.44;94.99;92973.69;5071185;28;20567;-92
2022/07/26 05:27:55;;;;;;;17.55;12.18;;;;;;;19.51;98.99;92973.38;5070015;28;20434;-89
2022/07/26 05:30:22;;;;;;;17.23;12.57;;;;;;;19.46;95.77;92961.19;5070330;28;20433;-90
2022/07/26 05:32:49;;;;;;;20.02;15.02;;;;;;;19.67;96.90;92975.88;5070113;28;20049;-91
2022/07/26 05:35:16;;;;;;;30.30;17.98;;;;;;;19.74;96.74;92971.94;5070085;28;20056;-91
2022/07/26 05:37:44;;;;;;;35.22;19.48;;;;;;;19.72;98.21;92971.41;5070056;28;20049;-90
2022/07/26 05:40:12;;;;;;;35.88;18.67;;;;;;;19.74;99.38;92973.75;5069643;28;20401;-88
2022/07/26 05:42:39;;;;;;;29.83;19.30;;;;;;;19.73;98.36;92972.19;5070239;28;20056;-88
2022/07/26 05:45:07;;;;;;;30.35;16.35;;;;;;;19.87;95.55;92961.91;5070002;28;20327;-89
2022/07/26 05:47:34;;;;;;;28.90;17.02;;;;;;;19.96;96.98;92951.66;5069361;28;20048;-90
2022/07/26 05:50:00;;;;;;;27.98;16.00;;;;;;;20.18;95.44;92958.28;5069956;28;20048;-89
2022/07/26 05:52:27;;;;;;;27.35;17.00;;;;;;;20.34;96.61;92964.13;5069502;28;20093;-90
2022/07/26 05:54:55;;;;;;;29.23;17.55;;;;;;;20.53;94.14;92951.94;5069436;28;20044;-89
2022/07/26 05:57:25;;;;;;;25.17;15.40;;;;;;;20.74;93.42;92953.53;5069836;28;20041;-89
2022/07/26 05:59:52;;;;;;;29.20;16.17;;;;;;;20.99;90.36;92956.88;5069473;28;20056;-92
2022/07/26 06:02:18;;;;;;;25.75;16.55;;;;;;;21.21;89.40;92957.13;5069428;28;20500;-89
2022/07/26 06:04:45;;;;;;;25.48;14.75;;;;;;;21.42;88.02;92951.59;5069580;28;20056;-90
2022/07/26 06:07:12;;;;;;;29.40;17.55;;;;;;;21.45;86.87;92916.28;5069321;28;20056;-91
2022/07/26 06:09:39;;;;;;;27.30;16.25;;;;;;;21.93;84.21;92944.06;5069691;28;20048;-93
2022/07/26 06:12:07;;;;;;;29.67;15.93;;;;;;;22.26;82.75;92945.88;5069706;28;20044;-91
2022/07/26 06:14:34;;;;;;;29.58;15.25;;;;;;;22.43;82.33;92942.66;5068749;28;20045;-90
2022/07/26 06:17:02;;;;;;;25.60;14.95;;;;;;;22.67;80.50;92939.09;5069494;28;20045;-91
2022/07/26 06:19:29;;;;;;;23.52;14.13;;;;;;;22.71;79.40;92928.84;5069602;28;20416;-90
2022/07/26 06:21:56;;;;;;;23.15;13.82;;;;;;;22.85;77.16;92905.25;5069802;28;20118;-93
2022/07/26 06:24:23;;;;;;;24.33;13.88;;;;;;;23.31;76.03;92919.19;5069529;28;20048;-93
2022/07/26 06:26:52;;;;;;;29.50;14.63;;;;;;;23.82;74.85;92933.00;5069715;28;20135;-91
2022/07/26 06:29:20;;;;;;;26.90;14.68;;;;;;;24.24;71.82;92932.78;5069909;28;20044;-93
2022/07/26 06:31:47;;;;;;;29.33;14.75;;;;;;;24.64;71.79;92934.63;5069961;28;20381;-92
2022/07/26 06:34:13;;;;;;;26.75;15.00;;;;;;;25.07;70.41;92929.78;5069953;28;21095;-90
2022/07/26 06:36:40;;;;;;;31.52;17.15;;;;;;;25.38;69.93;92928.09;5064467;28;20044;-88
2022/07/26 06:39:08;;;;;;;29.52;15.50;;;;;;;25.71;66.78;92927.63;5055961;28;20048;-90
2022/07/26 06:41:34;;;;;;;31.42;15.95;;;;;;;26.02;64.13;92929.28;5068298;28;20500;-91
2022/07/26 06:44:01;;;;;;;28.10;16.15;;;;;;;26.35;64.52;92927.94;5069294;28;20110;-91
2022/07/26 06:46:29;;;;;;;32.70;16.45;;;;;;;26.39;62.86;92932.25;5069025;28;20484;-91
2022/07/26 06:48:56;;;;;;;32.13;15.02;;;;;;;26.79;62.65;92927.72;5068757;28;20044;-88
2022/07/26 06:51:23;;;;;;;29.58;16.58;;;;;;;26.36;64.18;92922.38;5069045;28;20041;-89
2022/07/26 06:53:49;;;;;;;39.47;16.90;;;;;;;26.49;62.63;92922.47;5068785;28;20056;-88
2022/07/26 06:56:17;;;;;;;29.98;15.23;;;;;;;26.51;63.36;92922.91;5068692;28;20048;-86
2022/07/26 06:58:44;;;;;;;34.08;17.00;;;;;;;26.62;62.29;92923.34;5068952;28;20386;-91
2022/07/26 07:01:10;;;;;;;34.22;16.73;;;;;;;26.99;60.04;92902.56;5068627;28;20393;-90
2022/07/26 07:03:38;;;;;;;31.00;15.38;;;;;;;27.56;60.45;92918.06;5069055;28;20389;-91
2022/07/26 07:06:06;;;;;;;31.73;15.52;;;;;;;27.82;57.99;92922.38;5068690;28;20497;-92
2022/07/26 07:08:32;;;;;;;27.38;14.55;;;;;;;27.88;57.63;92876.19;5068742;28;20054;-90
2022/07/26 07:10:59;;;;;;;26.38;13.45;;;;;;;28.17;56.50;92919.38;5068882;28;20060;-90
2022/07/26 07:13:26;;;;;;;28.13;14.40;;;;;;;28.40;55.16;92903.13;5068601;28;20064;-90
2022/07/26 07:15:52;;;;;;;32.70;15.23;;;;;;;28.78;54.72;92917.09;5068088;28;20048;-89
2022/07/26 07:18:19;;;;;;;27.63;15.05;;;;;;;28.96;54.87;92922.94;5068544;28;20040;-90
2022/07/26 07:20:47;;;;;;;32.05;15.57;;;;;;;29.15;54.22;92913.66;5068624;28;20044;-91
2022/07/26 07:23:14;;;;;;;27.35;13.43;;;;;;;29.57;53.08;92923.91;5068848;28;20048;-91
2022/07/26 07:25:41;;;;;;;21.33;12.95;;;;;;;29.97;52.06;92916.22;5069678;28;20048;-91
2022/07/26 07:28:08;;;;;;;14.98;9.85;;;;;;;30.19;49.53;92899.00;5072200;28;20131;-90
2022/07/26 07:30:34;;;;;;;11.57;8.35;;;;;;;30.62;48.44;92930.25;5072318;28;20049;-93
2022/07/26 07:33:01;;;;;;;10.48;8.73;;;;;;;30.80;46.53;92918.22;5072014;28;20484;-88
2022/07/26 07:35:28;;;;;;;10.35;7.80;;;;;;;30.92;46.48;92913.94;5072467;28;20045;-89
2022/07/26 07:37:56;;;;;;;9.65;7.47;;;;;;;31.03;45.98;92896.34;5072211;28;20456;-91
2022/07/26 07:40:23;;;;;;;13.25;8.27;;;;;;;31.39;44.88;92914.91;5071898;28;20044;-90
2022/07/26 07:42:49;;;;;;;9.90;8.65;;;;;;;31.54;44.42;92923.91;5073552;28;20056;-90
2022/07/26 07:45:16;;;;;;;10.98;8.77;;;;;;;31.71;44.46;92919.28;5072095;28;20094;-90
2022/07/26 07:47:43;;;;;;;11.27;8.15;;;;;;;31.86;43.95;92920.34;5064333;28;20060;-90
2022/07/26 07:50:10;;;;;;;15.40;8.40;;;;;;;32.08;44.26;92913.50;5051089;28;20048;-90
2022/07/26 07:52:38;;;;;;;11.60;7.85;;;;;;;31.98;43.10;92890.22;5050877;28;20566;-90
2022/07/26 07:55:08;;;;;;;10.77;7.20;;;;;;;32.09;43.09;92882.41;5052023;28;20052;-93
2022/07/26 07:57:35;;;;;;;10.00;7.15;;;;;;;32.32;42.17;92911.63;5054420;28;20045;-88
2022/07/26 08:00:03;;;;;;;14.13;8.02;;;;;;;32.40;41.70;92912.53;5052099;28;20052;-90
2022/07/26 08:02:29;;;;;;;8.23;7.07;;;;;;;32.53;41.72;92911.22;5051811;28;20359;-88
2022/07/26 08:04:56;;;;;;;9.55;7.50;;;;;;;32.47;41.44;92912.66;5067432;28;20485;-92
2022/07/26 08:07:23;;;;;;;8.82;7.05;;;;;;;32.45;41.27;92896.31;5071681;28;20153;-93
2022/07/26 08:09:50;;;;;;;10.80;7.38;;;;;;;32.62;40.79;92903.00;5065600;28;20056;-90
2022/07/26 08:12:18;;;;;;;9.32;7.82;;;;;;;32.78;40.85;92915.38;5067622;28;20109;-91
2022/07/26 08:14:44;;;;;;;10.43;7.80;;;;;;;32.83;40.27;92896.44;5068835;28;20493;-90
2022/07/26 08:17:11;;;;;;;12.57;7.57;;;;;;;32.79;40.34;92904.38;5056219;28;20056;-90
2022/07/26 08:19:38;;;;;;;9.93;7.88;;;;;;;32.90;39.98;92904.53;5068336;28;20060;-92
2022/07/26 08:22:07;;;;;;;9.30;7.07;;;;;;;32.91;40.16;92894.66;5071284;28;20056;-92
2022/07/26 08:24:33;;;;;;;11.68;6.97;;;;;;;33.07;39.34;92894.50;5071188;28;20044;-88
2022/07/26 08:27:00;;;;;;;10.77;7.80;;;;;;;33.20;39.20;92889.72;5071223;28;20569;-88
2022/07/26 08:29:28;;;;;;;10.90;7.38;;;;;;;33.08;39.90;92866.75;5071380;28;20449;-86
2022/07/26 08:31:55;;;;;;;12.02;7.68;;;;;;;32.76;38.04;92808.59;5070202;28;20052;-88
2022/07/26 08:34:22;;;;;;;8.15;6.18;;;;;;;33.49;36.88;92899.94;5071489;28;20431;-90
2022/07/26 08:36:49;;;;;;;12.18;8.05;;;;;;;33.69;36.78;92898.66;5070774;28;20097;-90
2022/07/26 08:39:16;;;;;;;8.38;7.47;;;;;;;33.71;37.79;92890.31;5070901;28;20036;-89
2022/07/26 08:41:42;;;;;;;9.85;6.88;;;;;;;33.86;37.97;92891.22;5071271;28;20139;-89
2022/07/26 08:44:11;;;;;;;8.32;6.72;;;;;;;33.93;36.96;92891.28;5071260;28;20487;-90
2022/07/26 08:46:42;;;;;;;7.80;6.22;;;;;;;33.92;34.92;92868.44;5071297;28;20048;-89
2022/07/26 08:49:11;;;;;;;7.43;6.55;;;;;;;34.08;35.26;92878.13;5070839;28;20369;-89
2022/07/26 08:51:38;;;;;;;7.97;6.07;;;;;;;34.06;35.71;92865.16;5071174;28;20048;-86
2022/07/26 08:54:05;;;;;;;7.90;6.05;;;;;;;34.17;33.49;92885.81;5070608;28;20052;-89
2022/07/26 08:56:33;;;;;;;7.75;5.70;;;;;;;34.45;33.95;92881.81;5070924;28;20389;-88
2022/07/26 08:59:05;;;;;;;7.93;5.80;;;;;;;34.44;34.28;92880.31;5071162;28;20048;-88
2022/07/26 09:01:32;;;;;;;8.50;6.30;;;;;;;34.31;33.53;92877.16;5070844;28;20110;-89
2022/07/26 09:04:18;;;;;;;8.65;6.40;;;;;;;34.50;33.30;92874.25;5070969;28;20056;-89
2022/07/26 09:06:57;;;;;;;9.13;6.57;;;;;;;34.55;33.23;92869.69;5070814;28;20489;-91
2022/07/26 09:09:24;;;;;;;7.82;6.45;;;;;;;34.30;32.15;92860.41;5069831;28;20037;-90
2022/07/26 09:11:51;;;;;;;7.82;5.88;;;;;;;34.74;32.00;92882.03;5050629;28;20107;-88
2022/07/26 09:14:17;;;;;;;6.63;5.80;;;;;;;34.98;32.81;92882.56;5050551;28;20520;-87
2022/07/26 09:16:59;;;;;;;7.57;6.00;;;;;;;35.28;32.17;92885.03;5050617;28;20102;-88
2022/07/26 09:19:29;;;;;;;7.32;5.45;;;;;;;35.29;31.34;92880.44;5051398;28;20048;-88
2022/07/26 09:21:59;;;;;;;6.95;5.80;;;;;;;35.36;31.48;92872.47;5050913;28;20057;-86
2022/07/26 09:24:34;;;;;;;10.25;6.10;;;;;;;35.55;31.00;92879.38;5062435;28;20443;-91
2022/07/26 09:27:03;;;;;;;7.57;5.68;;;;;;;35.62;30.92;92877.91;5070877;28;20055;-90
2022/07/26 09:29:30;;;;;;;7.47;5.45;;;;;;;35.76;30.61;92882.53;5070683;28;20590;-87
2022/07/26 09:32:10;;;;;;;8.45;5.80;;;;;;;35.81;30.61;92876.78;5070266;28;20040;-87
2022/07/26 09:34:38;;;;;;;6.82;5.50;;;;;;;35.98;30.76;92876.06;5070369;28;20479;-87
2022/07/26 09:37:05;;;;;;;8.95;5.82;;;;;;;36.26;29.88;92875.69;5070322;28;20095;-88
2022/07/26 09:39:32;;;;;;;8.05;5.50;;;;;;;36.42;28.59;92872.66;5070499;28;20044;-88
2022/07/26 09:42:06;;;;;;;7.25;5.30;;;;;;;35.91;29.33;92853.91;5070459;28;20459;-87
2022/07/26 09:44:40;;;;;;;7.95;5.68;;;;;;;35.52;28.59;92882.81;5070327;28;20098;-87
2022/07/26 09:47:07;;;;;;;6.65;5.60;;;;;;;35.25;27.67;92860.97;5070188;28;20459;-89
2022/07/26 09:49:34;;;;;;;7.28;5.50;;;;;;;35.73;29.00;92873.34;5068949;28;20949;-91
2022/07/26 09:52:04;;;;;;;7.03;5.70;;;;;;;33.59;28.72;92840.72;5070093;28;20563;-89
2022/07/26 09:54:34;;;;;;;7.03;5.78;;;;;;;33.93;31.04;92864.63;5055833;28;20067;-85
2022/07/26 09:57:01;;;;;;;7.47;6.47;;;;;;;34.35;30.96;92868.06;5069891;28;20060;-88
2022/07/26 09:59:29;;;;;;;6.95;5.68;;;;;;;34.71;30.08;92858.78;5069783;28;20493;-88
2022/07/26 10:02:00;;;;;;;7.35;6.35;;;;;;;35.21;30.06;92863.63;5069762;28;20052;-90
2022/07/26 10:04:27;;;;;;;7.88;5.97;;;;;;;35.57;28.98;92845.06;5069998;28;20052;-89
2022/07/26 10:06:56;;;;;;;8.68;6.68;;;;;;;35.77;28.22;92865.34;5069886;28;20062;-88
2022/07/26 10:09:25;;;;;;;9.88;6.65;;;;;;;36.14;29.05;92863.50;5067640;28;20045;-90
2022/07/26 10:11:58;;;;;;;8.75;6.40;;;;;;;35.81;29.91;92839.38;5057280;28;20056;-88
2022/07/26 10:14:43;;;;;;;9.00;7.18;;;;;;;35.91;29.44;92861.94;5062260;28;20048;-89
2022/07/26 10:17:49;;;;;;;8.05;6.57;;;;;;;36.15;28.74;92849.75;5055100;28;20118;-88
2022/07/26 10:20:41;;;;;;;9.35;6.45;;;;;;;36.22;29.57;92822.22;5059115;28;20543;-90
2022/07/26 10:23:48;;;;;;;9.30;6.60;;;;;;;36.56;28.98;92853.91;5045398;28;20101;-89
2022/07/26 10:26:39;;;;;;;9.57;6.28;;;;;;;36.67;29.57;92848.56;5069443;28;20057;-88
2022/07/26 10:29:24;;;;;;;11.15;6.25;;;;;;;36.79;28.07;92851.97;5069657;28;20048;-91
2022/07/26 10:32:19;;;;;;;7.70;6.60;;;;;;;35.90;26.64;92847.78;5056309;28;20110;-92
2022/07/26 10:34:46;;;;;;;9.00;5.50;;;;;;;36.15;27.28;92839.06;5056224;28;20364;-88
2022/07/26 10:37:26;;;;;;;11.32;6.35;;;;;;;36.16;28.39;92837.91;5062953;28;20102;-90
2022/07/26 10:40:24;;;;;;;8.90;6.45;;;;;;;36.29;28.06;92838.28;5068699;28;20512;-94
2022/07/26 10:42:50;;;;;;;7.72;6.93;;;;;;;36.57;28.19;92818.00;5069217;28;20056;-93
2022/07/26 10:45:20;;;;;;;8.15;6.10;;;;;;;36.78;28.79;92824.44;5066168;28;20047;-92
2022/07/26 10:48:14;;;;;;;9.20;6.65;;;;;;;37.24;28.17;92830.06;5069022;28;20048;-91
2022/07/26 10:50:43;;;;;;;8.10;6.43;;;;;;;37.29;27.16;92824.28;5069293;28;20129;-92
2022/07/26 10:53:11;;;;;;;12.13;6.63;;;;;;;37.49;27.20;92821.91;5068893;28;20060;-91
2022/07/26 10:55:48;;;;;;;7.60;6.40;;;;;;;37.73;26.85;92816.78;5069307;28;20540;-91
2022/07/26 10:58:15;;;;;;;9.15;5.93;;;;;;;37.87;27.17;92801.75;5069215;28;20056;-93
2022/07/26 11:00:54;;;;;;;8.65;6.32;;;;;;;37.55;26.21;92760.63;5070008;28;20056;-92
2022/07/26 11:03:23;;;;;;;7.20;6.25;;;;;;;37.86;24.88;92794.88;5072808;28;20044;-91
2022/07/26 11:05:50;;;;;;;7.93;6.40;;;;;;;37.70;27.49;92751.34;5073250;28;20056;-93
2022/07/26 11:08:17;;;;;;;8.07;5.95;;;;;;;37.78;26.66;92724.47;5072959;28;20059;-92
2022/07/26 11:10:46;;;;;;;7.88;6.20;;;;;;;37.93;24.57;92792.91;5073211;28;20060;-91
2022/07/26 11:13:15;;;;;;;6.80;6.10;;;;;;;36.48;25.93;92785.53;5072784;28;20455;-90
2022/07/26 11:15:44;;;;;;;6.70;5.70;;;;;;;35.49;27.10;92786.66;5073037;28;20056;-85
2022/07/26 11:18:17;;;;;;;8.85;6.47;;;;;;;35.93;27.79;92782.13;5072490;28;20049;-90
2022/07/26 11:20:48;;;;;;;7.85;5.40;;;;;;;34.91;27.42;92750.66;5058834;28;20053;-93
2022/07/26 11:23:23;;;;;;;7.35;6.00;;;;;;;35.94;28.90;92771.06;5072685;28;20459;-94
2022/07/26 11:26:08;;;;;;;7.20;6.15;;;;;;;36.50;28.27;92772.53;5059186;28;20542;-93
2022/07/26 11:28:49;;;;;;;8.95;6.22;;;;;;;36.73;27.53;92757.94;5072422;28;20397;-93
2022/07/26 11:31:17;;;;;;;10.85;6.97;;;;;;;36.73;27.16;92761.41;5070387;28;20056;-89